Skip Navigation LinksHome page > Weather > Current weather Skip Navigation Links

Current Weather

Central Park, New York

For information only: do not use for flight planning or navigation.
Latest weather
Observation time Wednesday, July 30, 2014 12:51 PM EDT
Local time Wednesday, July 30, 2014 1:09 PM EDT
Flight conditions Visual Meteorological Conditions
Winds
Wind direction variable
Wind speed 6 mph
Visibility 10 mi.
Sky condition
Ceiling unlimited
Sky clear
Temperature 78°F
Dewpoint 45°F
Altimeter 30.04 in.Hg
Derived measurements
Relative humidity 31%
Heat index 78°F
Density altitude 1240 ft.
Sea-level pressure 30.01 in.Hg
Remarks
Fully automated report.
System requires maintenance.
Automated weather observing station with precipitation discriminator.
METAR KNYC 301651Z AUTO VRB05KT 10SM CLR 26/07 A3004 RMK AO2 SLP163 T02560072 $

Settings

Location code

InnerDrive.Weather 4.0.5294.0 Release CLR 4.0.30319.34014
Copyright ©2014 Inner Drive Technology. All rights reserved. Portions Copyright ©1986-2014 David Braverman.

Find weather

Site navigation


Skip Navigation Links

Place info

Page info

PayPal - The safer, easier way to pay online!

Return home.

Copyright ©2014 Inner Drive Technology. Purveyors of fine, hand-crafted computer software. Page printed 2014-07-30T17:10:00 UTC.